Time;durP1;ratioP1;P1;durP2;ratioP2;P2;SDS_P1;SDS_P2;PMS_P1;PMS_P2;Temp;Humidity;BMP_temperature;BMP_pressure;BME280_temperature;BME280_humidity;BME280_pressure;Samples;Min_cycle;Max_cycle;Signal;HPM_P1;HPM_P2
2023/02/03 00:00:31;;;;;;;;;;;;;;;0.31;95.35;100615.28;4936442;29;19920;-68
2023/02/03 00:02:57;;;;;;;;;;;;;;;0.36;95.85;100612.38;4935793;29;19953;-66
2023/02/03 00:05:23;;;;;;;;;;;;;;;0.46;96.35;100621.28;4937596;29;19961;-65
2023/02/03 00:07:49;;;;;;;;;;;;;;;0.47;95.89;100615.09;4938399;29;19914;-67
2023/02/03 00:10:14;;;;;;;;;;;;;;;0.52;96.04;100618.25;4938375;29;20278;-69
2023/02/03 00:12:40;;;;;;;;;;;;;;;0.58;96.00;100616.09;4936956;29;19958;-69
2023/02/03 00:15:05;;;;;;;;;;;;;;;0.62;95.67;100603.59;4936335;29;20351;-66
2023/02/03 00:17:31;;;;;;;;;;;;;;;0.67;95.61;100608.53;4936241;29;19914;-67
2023/02/03 00:19:56;;;;;;;;;;;;;;;0.68;95.18;100607.59;4919066;29;19954;-65
2023/02/03 00:22:21;;;;;;;;;;;;;;;0.54;94.79;100608.50;4936381;29;19910;-68
2023/02/03 00:24:47;;;;;;;;;;;;;;;0.48;95.11;100603.69;4935309;29;20443;-69
2023/02/03 00:27:13;;;;;;;;;;;;;;;0.44;95.42;100610.06;4936176;29;19918;-68
2023/02/03 00:29:38;;;;;;;;;;;;;;;0.39;95.72;100614.78;4936064;29;19993;-68
2023/02/03 00:32:03;;;;;;;;;;;;;;;0.29;96.18;100615.38;4935952;29;20075;-70
2023/02/03 00:34:29;;;;;;;;;;;;;;;0.34;96.75;100606.38;4919125;29;19911;-69
2023/02/03 00:36:54;;;;;;;;;;;;;;;0.42;96.55;100604.94;4936158;29;19965;-66
2023/02/03 00:39:20;;;;;;;;;;;;;;;0.47;96.57;100607.25;4935843;29;20285;-68
2023/02/03 00:41:45;;;;;;;;;;;;;;;0.53;96.19;100612.06;4936006;29;20006;-66
2023/02/03 00:44:10;;;;;;;;;;;;;;;0.52;96.03;100610.38;4935918;29;19918;-68
2023/02/03 00:46:35;;;;;;;;;;;;;;;0.52;96.02;100607.75;4935872;29;19911;-69
2023/02/03 00:49:02;;;;;;;;;;;;;;;0.50;95.99;100613.13;4936178;29;19910;-68
2023/02/03 00:51:27;;;;;;;;;;;;;;;0.46;95.52;100605.56;4936148;29;20319;-70
2023/02/03 00:53:52;;;;;;;;;;;;;;;0.39;96.00;100614.78;4935895;29;19910;-67
2023/02/03 00:56:17;;;;;;;;;;;;;;;0.37;96.65;100607.03;4935718;29;19910;-69
2023/02/03 00:58:43;;;;;;;;;;;;;;;0.42;96.64;100618.03;4935752;29;20066;-69
2023/02/03 01:01:12;;;;;;;;;;;;;;;0.46;97.14;100614.25;4935336;29;19915;-66
2023/02/03 01:03:38;;;;;;;;;;;;;;;0.52;96.76;100611.22;4935376;29;20009;-66
2023/02/03 01:06:09;;;;;;;;;;;;;;;0.54;97.26;100611.97;4935388;29;19938;-67
2023/02/03 01:08:35;;;;;;;;;;;;;;;0.51;97.09;100608.72;4935795;29;19925;-67
2023/02/03 01:11:04;;;;;;;;;;;;;;;0.49;97.35;100615.84;4936186;29;19910;-66
2023/02/03 01:13:30;;;;;;;;;;;;;;;0.46;97.51;100616.88;4922987;29;19911;-66
2023/02/03 01:15:55;;;;;;;;;;;;;;;0.45;97.20;100614.38;4936835;29;20486;-69
2023/02/03 01:18:20;;;;;;;;;;;;;;;0.46;97.75;100610.81;4935443;29;20399;-65
2023/02/03 01:20:45;;;;;;;;;;;;;;;0.42;97.63;100614.56;4918234;29;19911;-68
2023/02/03 01:23:11;;;;;;;;;;;;;;;0.32;98.32;100618.75;4935377;29;19911;-67
2023/02/03 01:25:36;;;;;;;;;;;;;;;0.28;99.05;100618.06;4935503;29;19911;-68
2023/02/03 01:28:01;;;;;;;;;;;;;;;0.31;99.27;100617.91;4935269;29;19966;-68
2023/02/03 01:30:27;;;;;;;;;;;;;;;0.32;99.17;100613.50;4935611;29;19946;-67
2023/02/03 01:32:52;;;;;;;;;;;;;;;0.30;98.84;100611.00;4935279;29;19966;-66
2023/02/03 01:35:17;;;;;;;;;;;;;;;0.28;99.12;100613.69;4935641;29;19910;-69
2023/02/03 01:37:43;;;;;;;;;;;;;;;0.30;99.17;100616.22;4941749;29;19910;-68
2023/02/03 01:40:08;;;;;;;;;;;;;;;0.27;99.54;100617.25;4943534;29;19958;-67
2023/02/03 01:42:34;;;;;;;;;;;;;;;0.23;99.26;100614.94;4943091;29;20310;-67
2023/02/03 01:44:59;;;;;;;;;;;;;;;0.17;99.71;100610.94;4924267;29;19917;-68
2023/02/03 01:47:38;;;;;;;;;;;;;;;0.12;99.92;100613.03;4942027;29;19910;-67
2023/02/03 01:50:21;;;;;;;;;;;;;;;0.03;100.00;100605.75;4939930;29;20009;-68
2023/02/03 01:53:00;;;;;;;;;;;;;;;0.04;100.00;100607.44;4938598;29;19924;-68
2023/02/03 01:55:34;;;;;;;;;;;;;;;0.07;100.00;100604.63;4938881;29;20278;-67
2023/02/03 01:58:09;;;;;;;;;;;;;;;0.09;100.00;100600.13;4938825;29;19926;-68
2023/02/03 02:00:34;;;;;;;;;;;;;;;0.07;100.00;100607.25;4938675;29;20409;-67
2023/02/03 02:03:01;;;;;;;;;;;;;;;0.07;100.00;100612.47;4938949;29;19970;-68
2023/02/03 02:05:29;;;;;;;;;;;;;;;-0.02;100.00;100605.19;4938753;29;19978;-67
2023/02/03 02:07:56;;;;;;;;;;;;;;;-0.02;100.00;100605.19;4938557;29;19915;-68
2023/02/03 02:10:23;;;;;;;;;;;;;;;0.02;100.00;100614.56;4938556;29;20367;-68
2023/02/03 02:12:48;;;;;;;;;;;;;;;0.05;100.00;100609.13;4939062;29;19935;-67
2023/02/03 02:15:14;;;;;;;;;;;;;;;0.11;100.00;100615.75;4938731;29;19918;-66
2023/02/03 02:17:48;;;;;;;;;;;;;;;0.04;100.00;100604.81;4938454;29;19910;-66
2023/02/03 02:20:22;;;;;;;;;;;;;;;0.03;100.00;100611.00;4938639;29;19958;-68
2023/02/03 02:22:50;;;;;;;;;;;;;;;0.06;100.00;100613.41;4938320;29;19917;-67
2023/02/03 02:25:36;;;;;;;;;;;;;;;0.03;100.00;100624.09;4938353;29;20334;-68
2023/02/03 02:28:01;;;;;;;;;;;;;;;-0.07;100.00;100612.50;4938196;29;19911;-68
2023/02/03 02:30:32;;;;;;;;;;;;;;;-0.20;100.00;100617.69;4938286;29;20414;-68
2023/02/03 02:33:16;;;;;;;;;;;;;;;-0.28;100.00;100613.91;4938340;29;20009;-69
2023/02/03 02:35:51;;;;;;;;;;;;;;;-0.29;100.00;100617.44;4938232;29;20009;-70
2023/02/03 02:38:26;;;;;;;;;;;;;;;-0.31;100.00;100613.13;4938151;29;20010;-69
2023/02/03 02:40:56;;;;;;;;;;;;;;;-0.33;100.00;100614.16;4937993;29;20480;-67
2023/02/03 02:43:27;;;;;;;;;;;;;;;-0.45;100.00;100618.41;4938077;29;20384;-67
2023/02/03 02:46:01;;;;;;;;;;;;;;;-0.47;100.00;100617.66;4937941;29;19918;-68
2023/02/03 02:48:38;;;;;;;;;;;;;;;-0.52;100.00;100622.34;4937347;29;19910;-66
2023/02/03 02:51:06;;;;;;;;;;;;;;;-0.52;100.00;100611.03;4938045;29;19918;-69
2023/02/03 02:53:33;;;;;;;;;;;;;;;-0.49;100.00;100609.06;4937917;29;19915;-69
2023/02/03 02:56:01;;;;;;;;;;;;;;;-0.49;100.00;100614.31;4938003;29;19915;-70
2023/02/03 02:58:28;;;;;;;;;;;;;;;-0.54;100.00;100608.53;4937715;29;20271;-70
2023/02/03 03:00:54;;;;;;;;;;;;;;;-0.55;100.00;100619.09;4938431;29;19921;-67
2023/02/03 03:03:23;;;;;;;;;;;;;;;-0.52;100.00;100622.34;4937942;29;19915;-70
2023/02/03 03:06:01;;;;;;;;;;;;;;;-0.47;100.00;100620.28;4937543;29;19958;-69
2023/02/03 03:08:32;;;;;;;;;;;;;;;-0.49;100.00;100616.91;4937449;29;19917;-70
2023/02/03 03:11:25;;;;;;;;;;;;;;;-0.51;100.00;100624.03;4924126;29;20386;-66
2023/02/03 03:13:52;;;;;;;;;;;;;;;-0.50;100.00;100628.31;4937509;29;20018;-68
2023/02/03 03:16:21;;;;;;;;;;;;;;;-0.51;100.00;100624.03;4937338;29;19914;-67
2023/02/03 03:19:05;;;;;;;;;;;;;;;-0.53;100.00;100625.91;4937550;29;20398;-68
2023/02/03 03:21:36;;;;;;;;;;;;;;;-0.54;100.00;100624.22;4938336;29;19914;-69
2023/02/03 03:24:07;;;;;;;;;;;;;;;-0.56;100.00;100626.09;4937605;29;19917;-69
2023/02/03 03:26:32;;;;;;;;;;;;;;;-0.57;100.00;100619.19;4937422;29;19911;-67
2023/02/03 03:29:06;;;;;;;;;;;;;;;-0.63;100.00;100617.75;4937346;29;19911;-66
2023/02/03 03:31:32;;;;;;;;;;;;;;;-0.71;100.00;100624.41;4919868;29;19965;-68
2023/02/03 03:33:57;;;;;;;;;;;;;;;-0.73;100.00;100626.28;4937068;29;20314;-69
2023/02/03 03:36:43;;;;;;;;;;;;;;;-0.71;100.00;100621.78;4937058;29;19911;-67
2023/02/03 03:39:21;;;;;;;;;;;;;;;-0.71;100.00;100627.03;4936839;29;20371;-68
2023/02/03 03:42:05;;;;;;;;;;;;;;;-0.81;100.00;100631.16;4936924;29;19911;-66
2023/02/03 03:44:41;;;;;;;;;;;;;;;-0.89;100.00;100630.75;4920379;29;19914;-67
2023/02/03 03:47:18;;;;;;;;;;;;;;;-0.90;100.00;100631.69;4936620;29;20386;-69
2023/02/03 03:49:44;;;;;;;;;;;;;;;-0.86;100.00;100630.59;4936807;29;20047;-67
2023/02/03 03:52:13;;;;;;;;;;;;;;;-0.79;100.00;100632.72;4936732;29;19918;-68
2023/02/03 03:54:41;;;;;;;;;;;;;;;-0.76;100.00;100636.94;4936620;29;20359;-69
2023/02/03 03:57:14;;;;;;;;;;;;;;;-0.69;100.00;100635.63;4937155;29;20017;-68
2023/02/03 03:59:42;;;;;;;;;;;;;;;-0.69;100.00;100633.84;4920305;29;19910;-66
2023/02/03 04:02:08;;;;;;;;;;;;;;;-0.68;100.00;100638.13;4920188;29;19978;-66
2023/02/03 04:04:35;;;;;;;;;;;;;;;-0.71;100.00;100638.31;4919941;29;20355;-69
2023/02/03 04:07:00;;;;;;;;;;;;;;;-0.69;100.00;100646.91;4936674;29;20351;-68
2023/02/03 04:09:26;;;;;;;;;;;;;;;-0.67;100.00;100645.03;4936770;29;19917;-68
2023/02/03 04:12:21;;;;;;;;;;;;;;;-0.68;100.00;100640.75;4936779;29;19991;-66
2023/02/03 04:14:46;;;;;;;;;;;;;;;-0.73;100.00;100640.19;4936399;29;19919;-65
2023/02/03 04:17:11;;;;;;;;;;;;;;;-0.68;100.00;100637.28;4936339;29;20348;-66
2023/02/03 04:19:37;;;;;;;;;;;;;;;-0.69;100.00;100638.22;4936057;29;20489;-65
2023/02/03 04:22:02;;;;;;;;;;;;;;;-0.74;100.00;100637.66;4936371;29;20315;-66
2023/02/03 04:24:27;;;;;;;;;;;;;;;-0.76;100.00;100635.16;4936103;29;20282;-69
2023/02/03 04:26:54;;;;;;;;;;;;;;;-0.81;100.00;100636.38;4936169;29;19918;-67
2023/02/03 04:29:19;;;;;;;;;;;;;;;-0.83;100.00;100636.47;4935971;29;19950;-65
2023/02/03 04:31:44;;;;;;;;;;;;;;;-0.83;100.00;100651.31;4936085;29;20351;-69
2023/02/03 04:34:10;;;;;;;;;;;;;;;-0.85;100.00;100650.56;4935891;29;19911;-68
2023/02/03 04:36:35;;;;;;;;;;;;;;;-0.90;100.00;100653.44;4936225;29;19915;-67
2023/02/03 04:39:00;;;;;;;;;;;;;;;-0.89;99.85;100654.28;4937201;29;19922;-69
2023/02/03 04:41:25;;;;;;;;;;;;;;;-0.91;99.63;100659.59;4937287;29;19915;-64
2023/02/03 04:43:54;;;;;;;;;;;;;;;-0.95;99.63;100656.31;4936956;29;20278;-68
2023/02/03 04:46:22;;;;;;;;;;;;;;;-0.98;100.00;100651.28;4919830;29;20033;-68
2023/02/03 04:48:47;;;;;;;;;;;;;;;-0.94;99.84;100657.16;4937255;29;20367;-66
2023/02/03 04:51:13;;;;;;;;;;;;;;;-0.86;99.67;100652.34;4936371;29;19917;-66
2023/02/03 04:53:38;;;;;;;;;;;;;;;-0.87;99.08;100652.41;4936378;29;20288;-67
2023/02/03 04:56:04;;;;;;;;;;;;;;;-0.99;98.57;100657.44;4935931;29;19933;-66
2023/02/03 04:58:29;;;;;;;;;;;;;;;-0.96;99.80;100665.09;4935488;29;19911;-67
2023/02/03 05:00:55;;;;;;;;;;;;;;;-0.95;99.65;100665.94;4935060;29;19918;-67
2023/02/03 05:03:21;;;;;;;;;;;;;;;-0.98;99.29;100664.34;4935206;29;20359;-67
2023/02/03 05:05:48;;;;;;;;;;;;;;;-1.00;99.41;100661.00;4935709;29;20016;-66
2023/02/03 05:08:13;;;;;;;;;;;;;;;-1.02;99.59;100665.47;4935648;29;19911;-67
2023/02/03 05:10:38;;;;;;;;;;;;;;;-1.04;99.84;100659.50;4936051;29;19947;-66
2023/02/03 05:13:04;;;;;;;;;;;;;;;-1.04;99.37;100663.88;4935483;29;19923;-64
2023/02/03 05:15:29;;;;;;;;;;;;;;;-1.03;99.57;100666.41;4936600;29;19911;-67
2023/02/03 05:17:55;;;;;;;;;;;;;;;-1.06;99.17;100658.75;4921000;29;20367;-65
2023/02/03 05:20:21;;;;;;;;;;;;;;;-1.11;98.69;100663.41;4936060;29;20005;-64
2023/02/03 05:22:46;;;;;;;;;;;;;;;-1.18;98.72;100667.31;4935550;29;19942;-66
2023/02/03 05:25:12;;;;;;;;;;;;;;;-1.26;98.77;100669.53;4918532;29;19911;-65
2023/02/03 05:27:38;;;;;;;;;;;;;;;-1.32;98.79;100668.13;4918570;29;19911;-69
2023/02/03 05:30:04;;;;;;;;;;;;;;;-1.31;98.56;100674.19;4935232;29;19929;-65
2023/02/03 05:32:30;;;;;;;;;;;;;;;-1.33;98.11;100670.81;4935339;29;19911;-67
2023/02/03 05:34:55;;;;;;;;;;;;;;;-1.35;98.42;100667.47;4935192;29;19918;-66
2023/02/03 05:37:20;;;;;;;;;;;;;;;-1.34;98.42;100674.38;4918005;29;20081;-68
2023/02/03 05:39:46;;;;;;;;;;;;;;;-1.31;98.15;100674.19;4934984;29;19910;-68
2023/02/03 05:42:11;;;;;;;;;;;;;;;-1.29;98.11;100680.16;4934868;29;19988;-66
2023/02/03 05:44:36;;;;;;;;;;;;;;;-1.27;98.49;100676.53;4934962;29;19910;-67
2023/02/03 05:47:01;;;;;;;;;;;;;;;-1.28;97.97;100671.38;4934639;29;20009;-68
2023/02/03 05:49:27;;;;;;;;;;;;;;;-1.28;97.75;100668.78;4935099;29;19917;-66
2023/02/03 05:51:53;;;;;;;;;;;;;;;-1.28;97.97;100674.84;4935280;29;20006;-69
2023/02/03 05:54:18;;;;;;;;;;;;;;;-1.29;97.84;100672.31;4902776;29;19911;-65
2023/02/03 05:56:44;;;;;;;;;;;;;;;-1.28;98.04;100679.22;4935457;29;20402;-64
2023/02/03 05:59:09;;;;;;;;;;;;;;;-1.39;96.99;100676.41;4935755;29;19975;-68
2023/02/03 06:01:35;;;;;;;;;;;;;;;-1.46;97.65;100677.66;4902736;29;19919;-68
2023/02/03 06:04:03;;;;;;;;;;;;;;;-1.51;97.72;100679.72;4935285;29;19921;-68
2023/02/03 06:06:32;;;;;;;;;;;;;;;-1.51;97.85;100682.31;4935258;29;19979;-69
2023/02/03 06:09:01;;;;;;;;;;;;;;;-1.48;97.54;100682.13;4935173;29;20336;-69
2023/02/03 06:11:27;;;;;;;;;;;;;;;-1.46;97.35;100688.13;4934925;29;20430;-67
2023/02/03 06:13:53;;;;;;;;;;;;;;;-1.46;97.34;100693.34;4935045;29;20012;-68
2023/02/03 06:16:18;;;;;;;;;;;;;;;-1.46;97.13;100688.13;4934799;29;20013;-66
2023/02/03 06:18:43;;;;;;;;;;;;;;;-1.43;96.90;100680.97;4935897;29;19974;-68
2023/02/03 06:21:09;;;;;;;;;;;;;;;-1.47;96.94;100679.44;4934919;29;20013;-68
2023/02/03 06:23:34;;;;;;;;;;;;;;;-1.45;96.67;100677.56;4936684;29;19985;-69
2023/02/03 06:25:59;;;;;;;;;;;;;;;-1.46;96.85;100678.50;4938062;29;19921;-68
2023/02/03 06:28:25;;;;;;;;;;;;;;;-1.49;96.28;100685.69;4921283;29;19915;-69
2023/02/03 06:30:51;;;;;;;;;;;;;;;-1.54;96.72;100688.56;4938086;29;20295;-69
2023/02/03 06:33:17;;;;;;;;;;;;;;;-1.57;96.15;100693.97;4938545;29;19917;-67
2023/02/03 06:35:43;;;;;;;;;;;;;;;-1.65;95.65;100693.56;4938452;29;19910;-67
2023/02/03 06:38:08;;;;;;;;;;;;;;;-1.70;95.63;100687.75;4938736;29;19942;-71
2023/02/03 06:40:33;;;;;;;;;;;;;;;-1.72;96.10;100695.69;4921852;29;20441;-69
2023/02/03 06:42:59;;;;;;;;;;;;;;;-1.66;95.63;100699.72;4938498;29;20426;-68
2023/02/03 06:45:24;;;;;;;;;;;;;;;-1.69;95.19;100695.50;4937973;29;20035;-68
2023/02/03 06:47:49;;;;;;;;;;;;;;;-1.68;95.97;100693.75;4938372;29;19917;-68
2023/02/03 06:50:15;;;;;;;;;;;;;;;-1.61;95.84;100702.91;4921203;29;19911;-67
2023/02/03 06:52:40;;;;;;;;;;;;;;;-1.56;95.76;100701.72;4938162;29;19998;-68
2023/02/03 06:55:06;;;;;;;;;;;;;;;-1.49;95.88;100710.03;4937926;29;19911;-69
2023/02/03 06:57:32;;;;;;;;;;;;;;;-1.46;95.82;100707.25;4937608;29;19915;-68
2023/02/03 06:59:57;;;;;;;;;;;;;;;-1.45;95.37;100715.91;4937688;29;19918;-68
2023/02/03 07:02:24;;;;;;;;;;;;;;;-1.44;95.34;100712.41;4937087;29;20278;-68
2023/02/03 07:04:49;;;;;;;;;;;;;;;-1.44;95.34;100715.03;4938006;29;19961;-67
2023/02/03 07:07:15;;;;;;;;;;;;;;;-1.46;94.98;100711.63;4938284;29;20315;-68
2023/02/03 07:09:40;;;;;;;;;;;;;;;-1.49;95.41;100714.41;4921248;29;19915;-70
2023/02/03 07:12:06;;;;;;;;;;;;;;;-1.52;95.82;100709.38;4937630;29;19911;-68
2023/02/03 07:14:56;;;;;;;;;;;;;;;-1.47;96.13;100716.00;4937665;29;19922;-66
2023/02/03 07:17:22;;;;;;;;;;;;;;;-1.47;95.55;100716.00;4921647;29;19914;-67
2023/02/03 07:19:47;;;;;;;;;;;;;;;-1.47;95.51;100723.00;4938107;29;19917;-69
2023/02/03 07:22:12;;;;;;;;;;;;;;;-1.42;95.07;100715.78;4937820;29;19953;-67
2023/02/03 07:24:37;;;;;;;;;;;;;;;-1.44;95.26;100720.25;4938276;29;19911;-67
2023/02/03 07:27:03;;;;;;;;;;;;;;;-1.44;94.97;100725.47;4938833;29;19966;-67
2023/02/03 07:29:29;;;;;;;;;;;;;;;-1.50;94.92;100725.78;4923676;29;19911;-67
2023/02/03 07:31:54;;;;;;;;;;;;;;;-1.58;94.69;100728.84;4920362;29;19915;-67
2023/02/03 07:34:19;;;;;;;;;;;;;;;-1.62;94.52;100730.78;4937376;29;19914;-67
2023/02/03 07:36:44;;;;;;;;;;;;;;;-1.66;93.70;100729.28;4937685;29;19915;-66
2023/02/03 07:39:10;;;;;;;;;;;;;;;-1.72;94.55;100728.78;4920314;29;19933;-67
2023/02/03 07:41:35;;;;;;;;;;;;;;;-1.74;95.23;100733.22;4937237;29;20385;-67
2023/02/03 07:44:00;;;;;;;;;;;;;;;-1.71;94.96;100731.31;4936815;29;19958;-67
2023/02/03 07:46:26;;;;;;;;;;;;;;;-1.77;94.71;100734.22;4936860;29;19911;-66
2023/02/03 07:48:51;;;;;;;;;;;;;;;-1.81;94.70;100737.94;4936654;29;19941;-67
2023/02/03 07:51:17;;;;;;;;;;;;;;;-1.84;94.47;100732.06;4936506;29;19915;-66
2023/02/03 07:53:42;;;;;;;;;;;;;;;-1.79;94.38;100730.03;4936565;29;20023;-66
2023/02/03 07:56:07;;;;;;;;;;;;;;;-1.77;93.97;100734.22;4936309;29;19910;-65
2023/02/03 07:58:33;;;;;;;;;;;;;;;-1.73;93.55;100729.72;4936338;29;19918;-66
2023/02/03 08:00:59;;;;;;;;;;;;;;;-1.67;93.75;100734.59;4936495;29;19915;-68
2023/02/03 08:03:24;;;;;;;;;;;;;;;-1.66;92.97;100731.88;4936559;29;20291;-67
2023/02/03 08:05:51;;;;;;;;;;;;;;;-1.65;92.59;100728.34;4936593;29;19917;-66
2023/02/03 08:08:16;;;;;;;;;;;;;;;-1.64;92.50;100723.97;4936797;29;19982;-68
2023/02/03 08:10:41;;;;;;;;;;;;;;;-1.60;92.53;100730.69;4936647;29;20367;-66
2023/02/03 08:13:07;;;;;;;;;;;;;;;-1.51;92.21;100729.34;4919532;29;20319;-67
2023/02/03 08:15:33;;;;;;;;;;;;;;;-1.43;92.06;100730.59;4936581;29;19921;-67
2023/02/03 08:17:58;;;;;;;;;;;;;;;-1.34;91.84;100732.69;4936411;29;19911;-70
2023/02/03 08:20:24;;;;;;;;;;;;;;;-1.27;91.63;100730.56;4919311;29;19911;-67
2023/02/03 08:22:49;;;;;;;;;;;;;;;-1.25;91.59;100739.16;4936270;29;20331;-66
2023/02/03 08:25:14;;;;;;;;;;;;;;;-1.27;91.20;100730.56;4936402;29;20375;-67
2023/02/03 08:27:40;;;;;;;;;;;;;;;-1.20;90.92;100734.50;4936058;29;20331;-68
2023/02/03 08:30:06;;;;;;;;;;;;;;;-1.12;91.05;100741.91;4936952;29;19961;-67
2023/02/03 08:32:32;;;;;;;;;;;;;;;-1.12;90.14;100732.31;4936853;29;19915;-66
2023/02/03 08:34:57;;;;;;;;;;;;;;;-1.12;90.42;100732.31;4937120;29;19918;-65
2023/02/03 08:37:27;;;;;;;;;;;;;;;-1.00;90.33;100742.03;4936682;29;20001;-67
2023/02/03 08:39:52;;;;;;;;;;;;;;;-1.03;89.49;100746.59;4936124;29;19911;-68
2023/02/03 08:42:18;;;;;;;;;;;;;;;-1.05;90.00;100745.84;4919345;29;19917;-65
2023/02/03 08:44:44;;;;;;;;;;;;;;;-1.09;89.15;100742.56;4936222;29;19920;-68
2023/02/03 08:47:09;;;;;;;;;;;;;;;-1.10;89.43;100740.88;4935513;29;19917;-68
2023/02/03 08:49:38;;;;;;;;;;;;;;;-1.07;88.64;100742.47;4936124;29;20290;-68
2023/02/03 08:52:04;;;;;;;;;;;;;;;-1.05;89.44;100743.22;4935728;29;19911;-66
2023/02/03 08:54:29;;;;;;;;;;;;;;;-0.95;89.07;100745.22;4935706;29;19917;-69
2023/02/03 08:56:54;;;;;;;;;;;;;;;-0.90;88.59;100752.78;4935562;29;19954;-68
2023/02/03 08:59:19;;;;;;;;;;;;;;;-0.86;88.45;100748.25;4935550;29;19942;-68
2023/02/03 09:01:48;;;;;;;;;;;;;;;-0.86;88.21;100750.84;4935881;29;19964;-69
2023/02/03 09:04:18;;;;;;;;;;;;;;;-0.82;87.93;100747.13;4918552;29;19914;-68
2023/02/03 09:06:49;;;;;;;;;;;;;;;-0.80;87.86;100753.09;4935534;29;19918;-67
2023/02/03 09:09:14;;;;;;;;;;;;;;;-0.79;87.19;100760.00;4935631;29;19910;-68
2023/02/03 09:11:40;;;;;;;;;;;;;;;-0.83;87.71;100754.13;4935520;29;19911;-67
2023/02/03 09:14:05;;;;;;;;;;;;;;;-0.83;86.45;100756.75;4935533;29;19922;-67
2023/02/03 09:16:55;;;;;;;;;;;;;;;-0.97;87.97;100752.31;4935757;29;20417;-67
2023/02/03 09:19:21;;;;;;;;;;;;;;;-0.96;87.54;100748.75;4935295;29;19915;-67
2023/02/03 09:21:48;;;;;;;;;;;;;;;-1.10;87.68;100745.28;4935249;29;20390;-67
2023/02/03 09:24:13;;;;;;;;;;;;;;;-1.20;87.30;100755.41;4935471;29;20402;-68
2023/02/03 09:26:39;;;;;;;;;;;;;;;-1.20;88.24;100750.16;4935577;29;19910;-66
2023/02/03 09:29:06;;;;;;;;;;;;;;;-1.29;87.86;100745.47;4935796;29;20007;-68
2023/02/03 09:31:31;;;;;;;;;;;;;;;-1.26;88.07;100747.91;4936328;29;19914;-67
2023/02/03 09:33:57;;;;;;;;;;;;;;;-1.19;87.90;100756.22;4935410;29;20013;-68
2023/02/03 09:36:22;;;;;;;;;;;;;;;-1.16;87.88;100751.66;4934997;29;19911;-67
2023/02/03 09:38:48;;;;;;;;;;;;;;;-1.08;88.07;100759.94;4935242;29;19973;-66
2023/02/03 09:41:32;;;;;;;;;;;;;;;-0.95;87.99;100754.81;4935373;29;20318;-69
2023/02/03 09:44:03;;;;;;;;;;;;;;;-0.93;87.81;100759.03;4935075;29;19917;-66
2023/02/03 09:46:31;;;;;;;;;;;;;;;-0.88;87.52;100764.00;4935018;29;19926;-66
2023/02/03 09:48:58;;;;;;;;;;;;;;;-0.91;87.33;100761.56;4935980;29;20014;-65
2023/02/03 09:51:27;;;;;;;;;;;;;;;-0.82;87.22;100760.19;4918062;29;19910;-68
2023/02/03 09:53:56;;;;;;;;;;;;;;;-0.69;87.33;100761.97;4935177;29;19958;-68
2023/02/03 09:56:27;;;;;;;;;;;;;;;-0.60;87.30;100755.34;4935218;29;20279;-67
2023/02/03 09:58:53;;;;;;;;;;;;;;;-0.41;87.07;100765.56;4938759;29;20331;-68
2023/02/03 10:01:22;;;;;;;;;;;;;;;-0.29;86.52;100759.59;4939212;29;19926;-70
2023/02/03 10:03:56;;;;;;;;;;;;;;;-0.23;85.86;100759.22;4941203;29;19914;-67
2023/02/03 10:06:29;;;;;;;;;;;;;;;-0.22;85.76;100760.91;4922634;29;20351;-68
2023/02/03 10:09:00;;;;;;;;;;;;;;;-0.31;84.21;100764.91;4938494;29;20008;-67
2023/02/03 10:11:49;;;;;;;;;;;;;;;-0.30;86.02;100768.38;4938662;29;19918;-66
2023/02/03 10:14:33;;;;;;;;;;;;;;;-0.24;86.09;100769.78;4933403;29;19910;-70
2023/02/03 10:17:18;;;;;;;;;;;;;;;-0.21;85.98;100780.06;4938471;29;19921;-66
2023/02/03 10:19:46;;;;;;;;;;;;;;;-0.24;85.53;100775.88;4938501;29;20013;-70
2023/02/03 10:22:15;;;;;;;;;;;;;;;-0.28;85.88;100773.53;4938832;29;19958;-65
2023/02/03 10:24:43;;;;;;;;;;;;;;;-0.30;85.72;100784.06;4939386;29;19910;-67
2023/02/03 10:27:22;;;;;;;;;;;;;;;-0.43;84.41;100778.75;4938434;29;19910;-68
2023/02/03 10:29:53;;;;;;;;;;;;;;;-0.53;85.86;100769.78;4938684;29;19918;-66
2023/02/03 10:32:18;;;;;;;;;;;;;;;-0.47;85.87;100774.63;4938779;29;19911;-67
2023/02/03 10:34:46;;;;;;;;;;;;;;;-0.44;85.98;100777.06;4938834;29;19917;-66
2023/02/03 10:37:12;;;;;;;;;;;;;;;-0.49;85.24;100768.66;4938829;29;20259;-67
2023/02/03 10:39:43;;;;;;;;;;;;;;;-0.58;85.53;100771.78;4938991;29;19911;-68
2023/02/03 10:42:10;;;;;;;;;;;;;;;-0.55;85.38;100768.19;4938241;29;20430;-68
2023/02/03 10:44:37;;;;;;;;;;;;;;;-0.55;85.27;100766.41;4938062;29;20017;-68
2023/02/03 10:47:21;;;;;;;;;;;;;;;-0.58;84.49;100779.66;4937945;29;19910;-67
2023/02/03 10:49:49;;;;;;;;;;;;;;;-0.65;85.20;100771.31;4937957;29;20363;-66
2023/02/03 10:52:25;;;;;;;;;;;;;;;-0.61;85.38;100779.84;4920876;29;19911;-71
2023/02/03 10:54:50;;;;;;;;;;;;;;;-0.71;85.81;100761.22;4937947;29;19911;-68
2023/02/03 10:57:16;;;;;;;;;;;;;;;-0.53;84.96;100777.63;4920876;29;20311;-68
2023/02/03 10:59:42;;;;;;;;;;;;;;;-0.60;85.62;100781.50;4937708;29;20337;-68
2023/02/03 11:02:24;;;;;;;;;;;;;;;-0.60;86.08;100780.66;4937559;29;20448;-66
2023/02/03 11:05:08;;;;;;;;;;;;;;;-0.59;86.16;100782.34;4937712;29;19915;-66
2023/02/03 11:07:34;;;;;;;;;;;;;;;-0.63;86.32;100781.69;4937823;29;20021;-69
2023/02/03 11:09:59;;;;;;;;;;;;;;;-0.84;84.74;100782.97;4936869;29;20005;-68
2023/02/03 11:12:24;;;;;;;;;;;;;;;-1.12;84.73;100778.50;4937747;29;20013;-67
2023/02/03 11:14:51;;;;;;;;;;;;;;;-1.35;86.10;100777.19;4921138;29;19915;-66
2023/02/03 11:17:22;;;;;;;;;;;;;;;-1.44;87.54;100775.09;4937793;29;19915;-67
2023/02/03 11:19:49;;;;;;;;;;;;;;;-1.32;87.72;100779.63;4937762;29;19914;-69
2023/02/03 11:22:35;;;;;;;;;;;;;;;-1.19;88.86;100775.38;4937033;29;19911;-67
2023/02/03 11:25:01;;;;;;;;;;;;;;;-1.16;87.34;100780.41;4937380;29;19911;-68
2023/02/03 11:27:29;;;;;;;;;;;;;;;-1.21;86.82;100779.00;4937422;29;19911;-68
2023/02/03 11:30:08;;;;;;;;;;;;;;;-1.23;86.82;100773.88;4937279;29;19954;-69
2023/02/03 11:32:35;;;;;;;;;;;;;;;-1.20;87.75;100770.22;4937116;29;20359;-70
2023/02/03 11:35:13;;;;;;;;;;;;;;;-1.12;87.69;100776.72;4936820;29;19953;-68
2023/02/03 11:37:44;;;;;;;;;;;;;;;-1.05;87.57;100779.81;4937646;29;19910;-68
2023/02/03 11:40:13;;;;;;;;;;;;;;;-1.07;87.03;100774.69;4937590;29;19926;-69
2023/02/03 11:42:43;;;;;;;;;;;;;;;-1.08;87.03;100783.47;4937087;29;19911;-68
2023/02/03 11:45:12;;;;;;;;;;;;;;;-1.11;86.85;100786.25;4936901;29;20323;-67
2023/02/03 11:47:38;;;;;;;;;;;;;;;-1.09;86.95;100783.56;4936780;29;19926;-68
2023/02/03 11:50:03;;;;;;;;;;;;;;;-1.11;86.74;100781.03;4936724;29;19911;-67
2023/02/03 11:52:31;;;;;;;;;;;;;;;-1.12;86.71;100781.97;4919914;29;20013;-69
2023/02/03 11:55:15;;;;;;;;;;;;;;;-1.07;86.98;100792.16;4936836;29;19977;-66
2023/02/03 11:57:49;;;;;;;;;;;;;;;-1.33;86.08;100796.22;4936702;29;19911;-69
2023/02/03 12:00:30;;;;;;;;;;;;;;;-1.32;87.44;100792.69;4937692;29;19937;-68
2023/02/03 12:03:03;;;;;;;;;;;;;;;-1.16;87.45;100792.66;4937858;29;19919;-69
2023/02/03 12:05:41;;;;;;;;;;;;;;;-1.14;86.15;100796.88;4941437;29;19922;-67
2023/02/03 12:08:09;;;;;;;;;;;;;;;-1.17;86.67;100797.03;4943877;29;19910;-69
2023/02/03 12:10:46;;;;;;;;;;;;;;;-1.20;87.69;100798.97;4942395;29;19911;-68
2023/02/03 12:13:18;;;;;;;;;;;;;;;-1.30;86.27;100798.66;4942561;29;19957;-67
2023/02/03 12:15:50;;;;;;;;;;;;;;;-1.38;87.36;100806.09;4940638;29;19978;-67
2023/02/03 12:18:41;;;;;;;;;;;;;;;-1.38;87.50;100813.94;4937055;29;19941;-66
2023/02/03 12:21:18;;;;;;;;;;;;;;;-1.31;88.45;100815.28;4935642;29;19941;-70
2023/02/03 12:23:47;;;;;;;;;;;;;;;-1.25;88.51;100807.94;4936293;29;19911;-66
2023/02/03 12:26:26;;;;;;;;;;;;;;;-1.25;87.79;100810.53;4936760;29;19918;-66
2023/02/03 12:29:00;;;;;;;;;;;;;;;-1.22;87.48;100819.97;4936235;29;19917;-71
2023/02/03 12:31:29;;;;;;;;;;;;;;;-1.28;87.38;100815.09;4936059;29;20351;-67
2023/02/03 12:34:03;;;;;;;;;;;;;;;-1.23;86.68;100818.28;4935626;29;19922;-68
2023/02/03 12:36:31;;;;;;;;;;;;;;;-1.22;86.54;100825.19;4935546;29;20279;-69
2023/02/03 12:39:23;;;;;;;;;;;;;;;-1.26;86.99;100828.91;4935500;29;19917;-68
2023/02/03 12:41:53;;;;;;;;;;;;;;;-1.35;87.24;100829.44;4933515;29;19949;-67